sensor_id;sensor_type;location;lat;lon;timestamp;P1;durP1;ratioP1;P2;durP2;ratioP2
70829;SDS011;58451;51.550;7.208;2023-09-18T00:00:37;13.80;;;8.00;;
70829;SDS011;58451;51.550;7.208;2023-09-18T00:02:11;13.50;;;7.90;;
70829;SDS011;58451;51.550;7.208;2023-09-18T00:03:43;13.10;;;7.80;;
70829;SDS011;58451;51.550;7.208;2023-09-18T00:05:14;13.60;;;7.30;;
70829;SDS011;58451;51.550;7.208;2023-09-18T00:06:47;13.40;;;7.80;;
70829;SDS011;58451;51.550;7.208;2023-09-18T00:08:19;15.40;;;8.90;;
70829;SDS011;58451;51.550;7.208;2023-09-18T00:09:51;14.70;;;8.20;;
70829;SDS011;58451;51.550;7.208;2023-09-18T00:11:24;14.10;;;8.10;;
70829;SDS011;58451;51.550;7.208;2023-09-18T00:12:57;13.50;;;8.00;;
70829;SDS011;58451;51.550;7.208;2023-09-18T00:14:29;12.60;;;7.80;;
70829;SDS011;58451;51.550;7.208;2023-09-18T00:16:01;13.70;;;8.30;;
70829;SDS011;58451;51.550;7.208;2023-09-18T00:17:33;14.20;;;8.10;;
70829;SDS011;58451;51.550;7.208;2023-09-18T00:19:04;14.70;;;7.90;;
70829;SDS011;58451;51.550;7.208;2023-09-18T00:20:39;12.90;;;7.80;;
70829;SDS011;58451;51.550;7.208;2023-09-18T00:22:13;15.20;;;8.00;;
70829;SDS011;58451;51.550;7.208;2023-09-18T00:23:44;13.30;;;7.70;;
70829;SDS011;58451;51.550;7.208;2023-09-18T00:25:17;14.80;;;7.80;;
70829;SDS011;58451;51.550;7.208;2023-09-18T00:26:49;13.60;;;7.90;;
70829;SDS011;58451;51.550;7.208;2023-09-18T00:28:24;12.60;;;7.60;;
70829;SDS011;58451;51.550;7.208;2023-09-18T00:29:56;14.80;;;8.10;;
70829;SDS011;58451;51.550;7.208;2023-09-18T00:31:27;12.20;;;7.20;;
70829;SDS011;58451;51.550;7.208;2023-09-18T00:32:59;14.90;;;8.20;;
70829;SDS011;58451;51.550;7.208;2023-09-18T00:34:31;13.10;;;7.70;;
70829;SDS011;58451;51.550;7.208;2023-09-18T00:36:03;13.90;;;8.10;;
70829;SDS011;58451;51.550;7.208;2023-09-18T00:37:35;14.10;;;8.20;;
70829;SDS011;58451;51.550;7.208;2023-09-18T00:39:08;13.10;;;7.70;;
70829;SDS011;58451;51.550;7.208;2023-09-18T00:40:40;11.40;;;6.80;;
70829;SDS011;58451;51.550;7.208;2023-09-18T00:42:12;11.80;;;7.60;;
70829;SDS011;58451;51.550;7.208;2023-09-18T00:43:45;13.10;;;7.20;;
70829;SDS011;58451;51.550;7.208;2023-09-18T00:45:17;15.40;;;7.70;;
70829;SDS011;58451;51.550;7.208;2023-09-18T00:46:49;13.10;;;7.50;;
70829;SDS011;58451;51.550;7.208;2023-09-18T00:48:21;13.70;;;7.40;;
70829;SDS011;58451;51.550;7.208;2023-09-18T00:49:54;15.70;;;7.50;;
70829;SDS011;58451;51.550;7.208;2023-09-18T00:51:29;11.60;;;7.00;;
70829;SDS011;58451;51.550;7.208;2023-09-18T00:53:08;11.50;;;7.00;;
70829;SDS011;58451;51.550;7.208;2023-09-18T00:54:43;12.30;;;6.60;;
70829;SDS011;58451;51.550;7.208;2023-09-18T00:56:18;11.60;;;6.90;;
70829;SDS011;58451;51.550;7.208;2023-09-18T00:57:55;12.80;;;7.10;;
70829;SDS011;58451;51.550;7.208;2023-09-18T00:59:27;13.10;;;7.50;;
70829;SDS011;58451;51.550;7.208;2023-09-18T01:01:00;15.00;;;7.60;;
70829;SDS011;58451;51.550;7.208;2023-09-18T01:02:32;13.00;;;7.30;;
70829;SDS011;58451;51.550;7.208;2023-09-18T01:04:04;12.30;;;7.30;;
70829;SDS011;58451;51.550;7.208;2023-09-18T01:05:36;12.00;;;6.50;;
70829;SDS011;58451;51.550;7.208;2023-09-18T01:07:08;12.40;;;6.50;;
70829;SDS011;58451;51.550;7.208;2023-09-18T01:08:40;13.60;;;6.80;;
70829;SDS011;58451;51.550;7.208;2023-09-18T01:10:12;12.60;;;6.80;;
70829;SDS011;58451;51.550;7.208;2023-09-18T01:13:45;13.50;;;7.20;;
70829;SDS011;58451;51.550;7.208;2023-09-18T01:15:42;12.30;;;7.30;;
70829;SDS011;58451;51.550;7.208;2023-09-18T01:17:20;14.00;;;6.70;;
70829;SDS011;58451;51.550;7.208;2023-09-18T01:18:52;12.40;;;6.60;;
70829;SDS011;58451;51.550;7.208;2023-09-18T01:20:24;13.90;;;7.50;;
70829;SDS011;58451;51.550;7.208;2023-09-18T01:21:56;12.30;;;6.70;;
70829;SDS011;58451;51.550;7.208;2023-09-18T01:23:28;12.70;;;6.90;;
70829;SDS011;58451;51.550;7.208;2023-09-18T01:24:59;13.70;;;7.40;;
70829;SDS011;58451;51.550;7.208;2023-09-18T01:26:31;11.10;;;6.80;;
70829;SDS011;58451;51.550;7.208;2023-09-18T01:28:03;11.80;;;6.90;;
70829;SDS011;58451;51.550;7.208;2023-09-18T01:29:35;12.90;;;6.60;;
70829;SDS011;58451;51.550;7.208;2023-09-18T01:31:08;14.60;;;6.90;;
70829;SDS011;58451;51.550;7.208;2023-09-18T01:32:40;11.50;;;6.50;;
70829;SDS011;58451;51.550;7.208;2023-09-18T01:34:16;11.50;;;6.20;;
70829;SDS011;58451;51.550;7.208;2023-09-18T01:35:52;14.30;;;6.60;;
70829;SDS011;58451;51.550;7.208;2023-09-18T01:37:29;10.70;;;6.10;;
70829;SDS011;58451;51.550;7.208;2023-09-18T01:39:02;14.00;;;6.60;;
70829;SDS011;58451;51.550;7.208;2023-09-18T01:40:34;15.30;;;6.80;;
70829;SDS011;58451;51.550;7.208;2023-09-18T01:42:07;13.40;;;6.40;;
70829;SDS011;58451;51.550;7.208;2023-09-18T01:43:42;10.70;;;6.30;;
70829;SDS011;58451;51.550;7.208;2023-09-18T01:45:14;12.20;;;6.00;;
70829;SDS011;58451;51.550;7.208;2023-09-18T01:46:46;12.20;;;6.20;;
70829;SDS011;58451;51.550;7.208;2023-09-18T01:48:18;12.90;;;6.70;;
70829;SDS011;58451;51.550;7.208;2023-09-18T01:49:50;14.10;;;6.80;;
70829;SDS011;58451;51.550;7.208;2023-09-18T01:51:22;11.10;;;6.70;;
70829;SDS011;58451;51.550;7.208;2023-09-18T01:52:53;14.30;;;6.70;;
70829;SDS011;58451;51.550;7.208;2023-09-18T01:54:25;12.50;;;6.50;;
70829;SDS011;58451;51.550;7.208;2023-09-18T01:55:58;11.50;;;6.10;;
70829;SDS011;58451;51.550;7.208;2023-09-18T01:57:30;14.50;;;6.30;;
70829;SDS011;58451;51.550;7.208;2023-09-18T01:59:01;12.60;;;6.30;;
70829;SDS011;58451;51.550;7.208;2023-09-18T02:00:34;13.90;;;6.30;;
70829;SDS011;58451;51.550;7.208;2023-09-18T02:02:07;12.90;;;6.30;;
70829;SDS011;58451;51.550;7.208;2023-09-18T02:03:45;11.70;;;6.30;;
70829;SDS011;58451;51.550;7.208;2023-09-18T02:05:39;12.70;;;6.50;;
70829;SDS011;58451;51.550;7.208;2023-09-18T02:07:13;15.30;;;6.70;;
70829;SDS011;58451;51.550;7.208;2023-09-18T02:08:45;12.20;;;5.90;;
70829;SDS011;58451;51.550;7.208;2023-09-18T02:10:17;13.00;;;6.10;;
70829;SDS011;58451;51.550;7.208;2023-09-18T02:11:49;12.00;;;6.30;;
70829;SDS011;58451;51.550;7.208;2023-09-18T02:13:21;12.40;;;6.60;;
70829;SDS011;58451;51.550;7.208;2023-09-18T02:14:53;13.50;;;6.30;;
70829;SDS011;58451;51.550;7.208;2023-09-18T02:16:26;12.10;;;6.60;;
70829;SDS011;58451;51.550;7.208;2023-09-18T02:17:58;14.30;;;6.60;;
70829;SDS011;58451;51.550;7.208;2023-09-18T02:19:30;12.30;;;6.00;;
70829;SDS011;58451;51.550;7.208;2023-09-18T02:21:02;11.20;;;6.60;;
70829;SDS011;58451;51.550;7.208;2023-09-18T02:22:34;14.40;;;6.80;;
70829;SDS011;58451;51.550;7.208;2023-09-18T02:24:06;14.90;;;6.10;;
70829;SDS011;58451;51.550;7.208;2023-09-18T02:25:38;12.70;;;5.70;;
70829;SDS011;58451;51.550;7.208;2023-09-18T02:27:12;10.80;;;6.60;;
70829;SDS011;58451;51.550;7.208;2023-09-18T02:28:46;12.60;;;6.30;;
70829;SDS011;58451;51.550;7.208;2023-09-18T02:30:18;10.60;;;5.80;;
70829;SDS011;58451;51.550;7.208;2023-09-18T02:31:50;11.70;;;6.40;;
70829;SDS011;58451;51.550;7.208;2023-09-18T02:33:22;11.00;;;5.90;;
70829;SDS011;58451;51.550;7.208;2023-09-18T02:34:54;11.60;;;5.90;;
70829;SDS011;58451;51.550;7.208;2023-09-18T02:36:26;12.70;;;6.30;;
70829;SDS011;58451;51.550;7.208;2023-09-18T02:37:58;10.40;;;6.30;;
70829;SDS011;58451;51.550;7.208;2023-09-18T02:39:31;13.70;;;6.30;;
70829;SDS011;58451;51.550;7.208;2023-09-18T02:41:04;11.80;;;6.50;;
70829;SDS011;58451;51.550;7.208;2023-09-18T02:42:36;12.30;;;6.40;;
70829;SDS011;58451;51.550;7.208;2023-09-18T02:44:08;12.30;;;6.10;;
70829;SDS011;58451;51.550;7.208;2023-09-18T02:45:40;11.10;;;5.90;;
70829;SDS011;58451;51.550;7.208;2023-09-18T02:47:12;11.70;;;5.90;;
70829;SDS011;58451;51.550;7.208;2023-09-18T02:48:44;12.00;;;6.10;;
70829;SDS011;58451;51.550;7.208;2023-09-18T02:50:16;11.80;;;6.60;;
70829;SDS011;58451;51.550;7.208;2023-09-18T02:51:48;13.10;;;6.40;;
70829;SDS011;58451;51.550;7.208;2023-09-18T02:53:23;11.80;;;6.00;;
70829;SDS011;58451;51.550;7.208;2023-09-18T02:54:56;11.30;;;6.20;;
70829;SDS011;58451;51.550;7.208;2023-09-18T02:56:27;15.00;;;6.90;;
70829;SDS011;58451;51.550;7.208;2023-09-18T02:57:59;11.40;;;6.50;;
70829;SDS011;58451;51.550;7.208;2023-09-18T02:59:31;12.70;;;6.30;;
70829;SDS011;58451;51.550;7.208;2023-09-18T03:01:03;12.30;;;6.20;;
70829;SDS011;58451;51.550;7.208;2023-09-18T03:02:37;14.10;;;6.90;;
70829;SDS011;58451;51.550;7.208;2023-09-18T03:04:09;12.70;;;6.30;;
70829;SDS011;58451;51.550;7.208;2023-09-18T03:05:42;14.70;;;6.50;;
70829;SDS011;58451;51.550;7.208;2023-09-18T03:07:15;11.60;;;5.90;;
70829;SDS011;58451;51.550;7.208;2023-09-18T03:08:48;11.70;;;5.50;;
70829;SDS011;58451;51.550;7.208;2023-09-18T03:10:20;11.90;;;6.90;;
70829;SDS011;58451;51.550;7.208;2023-09-18T03:11:52;15.70;;;6.40;;
70829;SDS011;58451;51.550;7.208;2023-09-18T03:13:26;15.30;;;6.90;;
70829;SDS011;58451;51.550;7.208;2023-09-18T03:14:59;11.50;;;6.00;;
70829;SDS011;58451;51.550;7.208;2023-09-18T03:16:31;12.60;;;6.40;;
70829;SDS011;58451;51.550;7.208;2023-09-18T03:18:06;13.30;;;6.40;;
70829;SDS011;58451;51.550;7.208;2023-09-18T03:19:39;15.10;;;6.60;;
70829;SDS011;58451;51.550;7.208;2023-09-18T03:21:12;14.40;;;6.80;;
70829;SDS011;58451;51.550;7.208;2023-09-18T03:22:44;15.60;;;6.50;;
70829;SDS011;58451;51.550;7.208;2023-09-18T03:24:16;11.90;;;6.10;;
70829;SDS011;58451;51.550;7.208;2023-09-18T03:25:48;11.90;;;5.50;;
70829;SDS011;58451;51.550;7.208;2023-09-18T03:27:23;12.40;;;6.00;;
70829;SDS011;58451;51.550;7.208;2023-09-18T03:29:00;13.60;;;5.40;;
70829;SDS011;58451;51.550;7.208;2023-09-18T03:30:32;9.30;;;5.20;;
70829;SDS011;58451;51.550;7.208;2023-09-18T03:32:04;11.00;;;4.90;;
70829;SDS011;58451;51.550;7.208;2023-09-18T03:33:36;10.50;;;4.20;;
70829;SDS011;58451;51.550;7.208;2023-09-18T03:35:08;7.80;;;4.00;;
70829;SDS011;58451;51.550;7.208;2023-09-18T03:36:49;8.80;;;4.00;;
70829;SDS011;58451;51.550;7.208;2023-09-18T03:38:21;7.20;;;3.60;;
70829;SDS011;58451;51.550;7.208;2023-09-18T03:39:53;13.00;;;4.20;;
70829;SDS011;58451;51.550;7.208;2023-09-18T03:41:25;11.60;;;3.80;;
70829;SDS011;58451;51.550;7.208;2023-09-18T03:42:57;9.00;;;3.60;;
70829;SDS011;58451;51.550;7.208;2023-09-18T03:44:29;10.70;;;5.40;;
70829;SDS011;58451;51.550;7.208;2023-09-18T03:46:05;8.20;;;3.70;;
70829;SDS011;58451;51.550;7.208;2023-09-18T03:47:44;16.20;;;8.80;;
70829;SDS011;58451;51.550;7.208;2023-09-18T03:49:16;12.20;;;4.90;;
70829;SDS011;58451;51.550;7.208;2023-09-18T03:50:48;7.00;;;3.40;;
70829;SDS011;58451;51.550;7.208;2023-09-18T03:52:20;8.50;;;3.40;;
70829;SDS011;58451;51.550;7.208;2023-09-18T03:53:51;7.60;;;3.70;;
70829;SDS011;58451;51.550;7.208;2023-09-18T03:55:23;8.00;;;3.50;;
70829;SDS011;58451;51.550;7.208;2023-09-18T03:56:55;8.00;;;3.20;;
70829;SDS011;58451;51.550;7.208;2023-09-18T03:58:27;9.10;;;3.60;;
70829;SDS011;58451;51.550;7.208;2023-09-18T04:00:05;10.40;;;4.80;;
70829;SDS011;58451;51.550;7.208;2023-09-18T04:01:52;10.70;;;3.60;;
70829;SDS011;58451;51.550;7.208;2023-09-18T04:03:39;8.20;;;3.20;;
70829;SDS011;58451;51.550;7.208;2023-09-18T04:05:10;9.10;;;3.30;;
70829;SDS011;58451;51.550;7.208;2023-09-18T04:06:43;9.20;;;3.20;;
70829;SDS011;58451;51.550;7.208;2023-09-18T04:08:16;9.30;;;3.40;;
70829;SDS011;58451;51.550;7.208;2023-09-18T04:09:48;8.90;;;3.20;;
70829;SDS011;58451;51.550;7.208;2023-09-18T04:11:20;10.40;;;3.20;;
70829;SDS011;58451;51.550;7.208;2023-09-18T04:12:57;11.20;;;3.30;;
70829;SDS011;58451;51.550;7.208;2023-09-18T04:14:28;7.80;;;3.20;;
70829;SDS011;58451;51.550;7.208;2023-09-18T04:16:00;9.50;;;3.10;;
70829;SDS011;58451;51.550;7.208;2023-09-18T04:17:32;12.50;;;3.00;;
70829;SDS011;58451;51.550;7.208;2023-09-18T04:19:04;8.20;;;3.20;;
70829;SDS011;58451;51.550;7.208;2023-09-18T04:20:36;8.50;;;3.10;;
70829;SDS011;58451;51.550;7.208;2023-09-18T04:22:09;8.80;;;3.00;;
70829;SDS011;58451;51.550;7.208;2023-09-18T04:23:41;6.90;;;2.70;;
70829;SDS011;58451;51.550;7.208;2023-09-18T04:25:12;8.20;;;2.80;;
70829;SDS011;58451;51.550;7.208;2023-09-18T04:26:45;6.60;;;2.90;;
70829;SDS011;58451;51.550;7.208;2023-09-18T04:28:19;9.70;;;3.40;;
70829;SDS011;58451;51.550;7.208;2023-09-18T04:29:52;8.30;;;3.20;;
70829;SDS011;58451;51.550;7.208;2023-09-18T04:31:24;7.90;;;3.10;;
70829;SDS011;58451;51.550;7.208;2023-09-18T04:32:55;9.60;;;3.50;;
70829;SDS011;58451;51.550;7.208;2023-09-18T04:34:27;10.10;;;3.20;;
70829;SDS011;58451;51.550;7.208;2023-09-18T04:35:59;7.60;;;2.80;;
70829;SDS011;58451;51.550;7.208;2023-09-18T04:37:36;10.10;;;3.00;;
70829;SDS011;58451;51.550;7.208;2023-09-18T04:39:10;8.20;;;2.90;;
70829;SDS011;58451;51.550;7.208;2023-09-18T04:40:42;11.40;;;3.50;;
70829;SDS011;58451;51.550;7.208;2023-09-18T04:42:14;7.40;;;2.90;;
70829;SDS011;58451;51.550;7.208;2023-09-18T04:43:46;8.40;;;2.90;;
70829;SDS011;58451;51.550;7.208;2023-09-18T04:45:18;8.50;;;3.20;;
70829;SDS011;58451;51.550;7.208;2023-09-18T04:46:50;7.30;;;2.90;;
70829;SDS011;58451;51.550;7.208;2023-09-18T04:48:22;11.10;;;2.90;;
70829;SDS011;58451;51.550;7.208;2023-09-18T04:49:54;6.70;;;2.70;;
70829;SDS011;58451;51.550;7.208;2023-09-18T04:51:26;8.80;;;3.00;;
70829;SDS011;58451;51.550;7.208;2023-09-18T04:52:58;9.90;;;3.10;;
70829;SDS011;58451;51.550;7.208;2023-09-18T04:54:30;12.20;;;3.30;;
70829;SDS011;58451;51.550;7.208;2023-09-18T04:56:02;8.30;;;3.10;;
70829;SDS011;58451;51.550;7.208;2023-09-18T04:57:35;8.40;;;2.90;;
70829;SDS011;58451;51.550;7.208;2023-09-18T04:59:07;8.40;;;3.30;;
70829;SDS011;58451;51.550;7.208;2023-09-18T05:00:39;8.60;;;3.00;;
70829;SDS011;58451;51.550;7.208;2023-09-18T05:02:13;7.20;;;2.70;;
70829;SDS011;58451;51.550;7.208;2023-09-18T05:03:45;8.40;;;2.80;;
70829;SDS011;58451;51.550;7.208;2023-09-18T05:05:17;9.30;;;3.10;;
70829;SDS011;58451;51.550;7.208;2023-09-18T05:06:50;10.50;;;3.10;;
70829;SDS011;58451;51.550;7.208;2023-09-18T05:08:22;9.20;;;3.10;;
70829;SDS011;58451;51.550;7.208;2023-09-18T05:09:54;7.90;;;2.70;;
70829;SDS011;58451;51.550;7.208;2023-09-18T05:11:26;9.40;;;3.00;;
70829;SDS011;58451;51.550;7.208;2023-09-18T05:12:57;9.00;;;2.80;;
70829;SDS011;58451;51.550;7.208;2023-09-18T05:14:32;10.60;;;3.20;;
70829;SDS011;58451;51.550;7.208;2023-09-18T05:16:05;9.20;;;2.80;;
70829;SDS011;58451;51.550;7.208;2023-09-18T05:17:44;10.70;;;3.20;;
70829;SDS011;58451;51.550;7.208;2023-09-18T05:19:23;9.00;;;2.90;;
70829;SDS011;58451;51.550;7.208;2023-09-18T05:20:55;9.30;;;2.50;;
70829;SDS011;58451;51.550;7.208;2023-09-18T05:22:27;10.30;;;3.10;;
70829;SDS011;58451;51.550;7.208;2023-09-18T05:24:00;9.50;;;2.90;;
70829;SDS011;58451;51.550;7.208;2023-09-18T05:25:33;13.20;;;3.80;;
70829;SDS011;58451;51.550;7.208;2023-09-18T05:27:09;9.00;;;3.00;;
70829;SDS011;58451;51.550;7.208;2023-09-18T05:28:41;9.50;;;3.60;;
70829;SDS011;58451;51.550;7.208;2023-09-18T05:30:15;11.30;;;3.20;;
70829;SDS011;58451;51.550;7.208;2023-09-18T05:31:53;8.60;;;3.10;;
70829;SDS011;58451;51.550;7.208;2023-09-18T05:33:25;11.80;;;3.40;;
70829;SDS011;58451;51.550;7.208;2023-09-18T05:34:57;11.20;;;3.70;;
70829;SDS011;58451;51.550;7.208;2023-09-18T05:36:33;11.80;;;3.40;;
70829;SDS011;58451;51.550;7.208;2023-09-18T05:38:05;11.70;;;3.50;;
70829;SDS011;58451;51.550;7.208;2023-09-18T05:39:37;9.90;;;2.90;;
70829;SDS011;58451;51.550;7.208;2023-09-18T05:41:09;12.90;;;3.60;;
70829;SDS011;58451;51.550;7.208;2023-09-18T05:42:43;9.40;;;3.00;;
70829;SDS011;58451;51.550;7.208;2023-09-18T05:44:15;11.70;;;3.00;;
70829;SDS011;58451;51.550;7.208;2023-09-18T05:45:47;11.40;;;3.00;;
70829;SDS011;58451;51.550;7.208;2023-09-18T05:47:21;10.80;;;3.50;;
70829;SDS011;58451;51.550;7.208;2023-09-18T05:48:53;10.70;;;3.20;;
70829;SDS011;58451;51.550;7.208;2023-09-18T05:50:28;12.60;;;3.30;;
70829;SDS011;58451;51.550;7.208;2023-09-18T05:52:01;10.60;;;3.40;;
70829;SDS011;58451;51.550;7.208;2023-09-18T05:53:33;10.40;;;3.20;;
70829;SDS011;58451;51.550;7.208;2023-09-18T05:55:07;9.90;;;3.10;;
70829;SDS011;58451;51.550;7.208;2023-09-18T05:56:39;10.80;;;3.50;;
70829;SDS011;58451;51.550;7.208;2023-09-18T05:58:10;9.80;;;3.30;;
70829;SDS011;58451;51.550;7.208;2023-09-18T05:59:42;10.30;;;3.30;;
70829;SDS011;58451;51.550;7.208;2023-09-18T06:01:16;10.10;;;3.10;;
70829;SDS011;58451;51.550;7.208;2023-09-18T06:02:48;9.00;;;2.90;;
70829;SDS011;58451;51.550;7.208;2023-09-18T06:04:20;11.40;;;3.80;;
70829;SDS011;58451;51.550;7.208;2023-09-18T06:05:53;9.30;;;3.30;;
70829;SDS011;58451;51.550;7.208;2023-09-18T06:07:24;10.50;;;3.30;;
70829;SDS011;58451;51.550;7.208;2023-09-18T06:08:56;10.20;;;3.40;;
70829;SDS011;58451;51.550;7.208;2023-09-18T06:10:28;11.20;;;3.00;;
70829;SDS011;58451;51.550;7.208;2023-09-18T06:12:00;8.50;;;3.10;;
70829;SDS011;58451;51.550;7.208;2023-09-18T06:13:31;12.10;;;3.30;;
70829;SDS011;58451;51.550;7.208;2023-09-18T06:15:09;9.50;;;3.10;;
70829;SDS011;58451;51.550;7.208;2023-09-18T06:16:41;10.50;;;3.40;;
70829;SDS011;58451;51.550;7.208;2023-09-18T06:18:14;11.40;;;3.20;;
70829;SDS011;58451;51.550;7.208;2023-09-18T06:19:46;12.80;;;3.50;;
70829;SDS011;58451;51.550;7.208;2023-09-18T06:21:18;10.50;;;3.00;;
70829;SDS011;58451;51.550;7.208;2023-09-18T06:22:50;10.40;;;2.80;;
70829;SDS011;58451;51.550;7.208;2023-09-18T06:24:22;12.00;;;3.10;;
70829;SDS011;58451;51.550;7.208;2023-09-18T06:25:54;9.30;;;2.60;;
70829;SDS011;58451;51.550;7.208;2023-09-18T06:27:30;9.00;;;3.00;;
70829;SDS011;58451;51.550;7.208;2023-09-18T06:29:09;9.90;;;2.90;;
70829;SDS011;58451;51.550;7.208;2023-09-18T06:30:41;10.00;;;3.00;;
70829;SDS011;58451;51.550;7.208;2023-09-18T06:32:13;13.90;;;3.40;;
70829;SDS011;58451;51.550;7.208;2023-09-18T06:33:47;8.50;;;2.90;;
70829;SDS011;58451;51.550;7.208;2023-09-18T06:35:19;14.00;;;3.60;;
70829;SDS011;58451;51.550;7.208;2023-09-18T06:36:51;10.90;;;3.30;;
70829;SDS011;58451;51.550;7.208;2023-09-18T06:38:26;7.30;;;2.90;;
70829;SDS011;58451;51.550;7.208;2023-09-18T06:39:59;10.50;;;2.90;;
70829;SDS011;58451;51.550;7.208;2023-09-18T06:41:35;10.00;;;3.00;;
70829;SDS011;58451;51.550;7.208;2023-09-18T06:43:08;10.60;;;3.70;;
70829;SDS011;58451;51.550;7.208;2023-09-18T06:44:40;9.90;;;3.40;;
70829;SDS011;58451;51.550;7.208;2023-09-18T06:46:12;11.40;;;2.90;;
70829;SDS011;58451;51.550;7.208;2023-09-18T06:47:44;11.00;;;2.60;;
70829;SDS011;58451;51.550;7.208;2023-09-18T06:49:16;9.40;;;2.50;;
70829;SDS011;58451;51.550;7.208;2023-09-18T06:50:48;9.20;;;2.70;;
70829;SDS011;58451;51.550;7.208;2023-09-18T06:52:20;12.40;;;3.20;;
70829;SDS011;58451;51.550;7.208;2023-09-18T06:53:51;6.90;;;2.20;;
70829;SDS011;58451;51.550;7.208;2023-09-18T06:55:23;9.30;;;2.60;;
70829;SDS011;58451;51.550;7.208;2023-09-18T06:56:55;8.20;;;2.20;;
70829;SDS011;58451;51.550;7.208;2023-09-18T06:58:27;10.10;;;2.70;;
70829;SDS011;58451;51.550;7.208;2023-09-18T06:59:58;10.30;;;2.70;;
70829;SDS011;58451;51.550;7.208;2023-09-18T07:01:30;7.80;;;2.50;;
70829;SDS011;58451;51.550;7.208;2023-09-18T07:03:03;8.40;;;2.20;;
70829;SDS011;58451;51.550;7.208;2023-09-18T07:04:36;10.10;;;2.50;;
70829;SDS011;58451;51.550;7.208;2023-09-18T07:06:08;10.90;;;2.50;;
70829;SDS011;58451;51.550;7.208;2023-09-18T07:07:40;7.70;;;2.40;;
70829;SDS011;58451;51.550;7.208;2023-09-18T07:09:12;9.30;;;2.40;;
70829;SDS011;58451;51.550;7.208;2023-09-18T07:10:45;7.00;;;2.00;;
70829;SDS011;58451;51.550;7.208;2023-09-18T07:12:17;9.00;;;2.20;;
70829;SDS011;58451;51.550;7.208;2023-09-18T07:13:52;7.50;;;2.20;;
70829;SDS011;58451;51.550;7.208;2023-09-18T07:15:24;7.30;;;2.10;;
70829;SDS011;58451;51.550;7.208;2023-09-18T07:16:55;7.80;;;2.20;;
70829;SDS011;58451;51.550;7.208;2023-09-18T07:18:27;7.80;;;1.80;;
70829;SDS011;58451;51.550;7.208;2023-09-18T07:19:59;9.40;;;2.50;;
70829;SDS011;58451;51.550;7.208;2023-09-18T07:21:32;10.40;;;2.40;;
70829;SDS011;58451;51.550;7.208;2023-09-18T07:23:04;10.70;;;2.50;;
70829;SDS011;58451;51.550;7.208;2023-09-18T07:24:36;9.40;;;2.60;;
70829;SDS011;58451;51.550;7.208;2023-09-18T07:26:12;6.90;;;2.10;;
70829;SDS011;58451;51.550;7.208;2023-09-18T07:27:44;8.90;;;2.30;;
70829;SDS011;58451;51.550;7.208;2023-09-18T07:29:16;10.30;;;2.40;;
70829;SDS011;58451;51.550;7.208;2023-09-18T07:30:48;8.10;;;2.30;;
70829;SDS011;58451;51.550;7.208;2023-09-18T07:32:19;7.30;;;2.10;;
70829;SDS011;58451;51.550;7.208;2023-09-18T07:34:08;7.40;;;2.00;;
70829;SDS011;58451;51.550;7.208;2023-09-18T07:35:48;6.30;;;2.00;;
70829;SDS011;58451;51.550;7.208;2023-09-18T07:37:23;11.10;;;2.20;;
70829;SDS011;58451;51.550;7.208;2023-09-18T07:38:55;8.30;;;2.10;;
70829;SDS011;58451;51.550;7.208;2023-09-18T07:40:28;7.30;;;2.10;;
70829;SDS011;58451;51.550;7.208;2023-09-18T07:41:59;7.70;;;2.30;;
70829;SDS011;58451;51.550;7.208;2023-09-18T07:43:31;10.50;;;2.20;;
70829;SDS011;58451;51.550;7.208;2023-09-18T07:45:03;6.00;;;1.90;;
70829;SDS011;58451;51.550;7.208;2023-09-18T07:46:35;6.40;;;2.10;;
70829;SDS011;58451;51.550;7.208;2023-09-18T07:48:08;5.70;;;2.00;;
70829;SDS011;58451;51.550;7.208;2023-09-18T07:49:40;8.10;;;2.00;;
70829;SDS011;58451;51.550;7.208;2023-09-18T07:51:12;6.00;;;1.80;;
70829;SDS011;58451;51.550;7.208;2023-09-18T07:52:45;6.70;;;2.00;;
70829;SDS011;58451;51.550;7.208;2023-09-18T07:54:17;6.60;;;1.90;;
70829;SDS011;58451;51.550;7.208;2023-09-18T07:55:55;7.50;;;1.80;;
70829;SDS011;58451;51.550;7.208;2023-09-18T07:57:36;4.80;;;1.80;;
70829;SDS011;58451;51.550;7.208;2023-09-18T07:59:08;6.30;;;1.60;;
70829;SDS011;58451;51.550;7.208;2023-09-18T08:00:42;5.80;;;1.60;;
70829;SDS011;58451;51.550;7.208;2023-09-18T08:02:13;6.40;;;1.80;;
70829;SDS011;58451;51.550;7.208;2023-09-18T08:03:45;4.30;;;1.80;;
70829;SDS011;58451;51.550;7.208;2023-09-18T08:05:18;5.80;;;1.50;;
70829;SDS011;58451;51.550;7.208;2023-09-18T08:06:50;6.20;;;1.40;;
70829;SDS011;58451;51.550;7.208;2023-09-18T08:08:22;6.70;;;1.90;;
70829;SDS011;58451;51.550;7.208;2023-09-18T08:09:57;6.10;;;1.80;;
70829;SDS011;58451;51.550;7.208;2023-09-18T08:11:29;5.90;;;1.90;;
70829;SDS011;58451;51.550;7.208;2023-09-18T08:13:01;6.00;;;2.10;;
70829;SDS011;58451;51.550;7.208;2023-09-18T08:14:33;7.90;;;2.30;;
70829;SDS011;58451;51.550;7.208;2023-09-18T08:16:07;6.40;;;2.00;;
70829;SDS011;58451;51.550;7.208;2023-09-18T08:17:40;6.40;;;1.60;;
70829;SDS011;58451;51.550;7.208;2023-09-18T08:19:15;6.10;;;1.70;;
70829;SDS011;58451;51.550;7.208;2023-09-18T08:20:48;7.30;;;1.90;;
70829;SDS011;58451;51.550;7.208;2023-09-18T08:22:20;6.00;;;2.00;;
70829;SDS011;58451;51.550;7.208;2023-09-18T08:23:52;5.00;;;1.60;;
70829;SDS011;58451;51.550;7.208;2023-09-18T08:25:24;4.50;;;1.50;;
70829;SDS011;58451;51.550;7.208;2023-09-18T08:26:56;4.10;;;1.60;;
70829;SDS011;58451;51.550;7.208;2023-09-18T08:28:28;5.90;;;1.70;;
70829;SDS011;58451;51.550;7.208;2023-09-18T08:30:01;4.80;;;1.50;;
70829;SDS011;58451;51.550;7.208;2023-09-18T08:31:32;7.20;;;1.70;;
70829;SDS011;58451;51.550;7.208;2023-09-18T08:33:04;6.70;;;1.80;;
70829;SDS011;58451;51.550;7.208;2023-09-18T08:34:37;7.90;;;1.80;;
70829;SDS011;58451;51.550;7.208;2023-09-18T08:36:09;6.20;;;1.60;;
70829;SDS011;58451;51.550;7.208;2023-09-18T08:37:41;4.00;;;1.40;;
70829;SDS011;58451;51.550;7.208;2023-09-18T08:39:14;6.90;;;1.90;;
70829;SDS011;58451;51.550;7.208;2023-09-18T08:40:45;3.80;;;1.50;;
70829;SDS011;58451;51.550;7.208;2023-09-18T08:42:17;4.70;;;1.70;;
70829;SDS011;58451;51.550;7.208;2023-09-18T08:43:56;5.00;;;1.40;;
70829;SDS011;58451;51.550;7.208;2023-09-18T08:45:42;3.80;;;1.20;;
70829;SDS011;58451;51.550;7.208;2023-09-18T08:47:19;4.80;;;1.60;;
70829;SDS011;58451;51.550;7.208;2023-09-18T08:48:52;6.70;;;1.50;;
70829;SDS011;58451;51.550;7.208;2023-09-18T08:50:27;4.10;;;1.60;;
70829;SDS011;58451;51.550;7.208;2023-09-18T08:52:01;5.50;;;1.70;;
70829;SDS011;58451;51.550;7.208;2023-09-18T08:53:35;5.10;;;1.30;;
70829;SDS011;58451;51.550;7.208;2023-09-18T08:55:08;6.00;;;1.90;;
70829;SDS011;58451;51.550;7.208;2023-09-18T08:56:41;4.10;;;1.30;;
70829;SDS011;58451;51.550;7.208;2023-09-18T08:58:13;5.10;;;1.90;;
70829;SDS011;58451;51.550;7.208;2023-09-18T08:59:48;5.80;;;1.80;;
70829;SDS011;58451;51.550;7.208;2023-09-18T09:01:21;6.80;;;1.40;;
70829;SDS011;58451;51.550;7.208;2023-09-18T09:02:54;4.20;;;1.70;;
70829;SDS011;58451;51.550;7.208;2023-09-18T09:04:26;5.50;;;1.90;;
70829;SDS011;58451;51.550;7.208;2023-09-18T09:05:59;5.00;;;1.50;;
70829;SDS011;58451;51.550;7.208;2023-09-18T09:07:32;4.50;;;1.50;;
70829;SDS011;58451;51.550;7.208;2023-09-18T09:09:04;4.50;;;1.20;;
70829;SDS011;58451;51.550;7.208;2023-09-18T09:10:36;5.10;;;1.50;;
70829;SDS011;58451;51.550;7.208;2023-09-18T09:12:08;4.20;;;1.30;;
70829;SDS011;58451;51.550;7.208;2023-09-18T09:13:40;3.80;;;1.50;;
70829;SDS011;58451;51.550;7.208;2023-09-18T09:15:17;6.00;;;1.60;;
70829;SDS011;58451;51.550;7.208;2023-09-18T09:16:50;3.90;;;1.20;;
70829;SDS011;58451;51.550;7.208;2023-09-18T09:18:28;4.60;;;1.40;;